sensor_id;sensor_type;location;lat;lon;timestamp;pressure;altitude;pressure_sealevel;temperature;humidity
48386;BME280;34644;47.964;7.982;2023-03-01T00:05:44;97092.81;;;13.99;55.88
48386;BME280;34644;47.964;7.982;2023-03-01T00:12:45;97097.31;;;13.99;55.75
48386;BME280;34644;47.964;7.982;2023-03-01T00:19:45;97089.34;;;13.99;55.97
48386;BME280;34644;47.964;7.982;2023-03-01T00:26:46;97087.50;;;13.99;56.16
48386;BME280;34644;47.964;7.982;2023-03-01T00:33:46;97087.00;;;14.02;56.31
48386;BME280;34644;47.964;7.982;2023-03-01T00:40:47;97080.13;;;14.01;56.03
48386;BME280;34644;47.964;7.982;2023-03-01T00:47:48;97078.28;;;14.02;56.33
48386;BME280;34644;47.964;7.982;2023-03-01T00:54:48;97073.53;;;14.04;56.70
48386;BME280;34644;47.964;7.982;2023-03-01T01:01:48;97069.84;;;14.05;56.30
48386;BME280;34644;47.964;7.982;2023-03-01T01:08:49;97056.81;;;14.03;56.49
48386;BME280;34644;47.964;7.982;2023-03-01T01:15:50;97040.13;;;14.03;56.49
48386;BME280;34644;47.964;7.982;2023-03-01T01:22:50;97051.78;;;14.02;56.57
48386;BME280;34644;47.964;7.982;2023-03-01T01:29:52;97049.91;;;14.02;56.75
48386;BME280;34644;47.964;7.982;2023-03-01T01:36:53;97040.63;;;14.00;56.70
48386;BME280;34644;47.964;7.982;2023-03-01T01:51:13;97031.84;;;13.99;56.75
48386;BME280;34644;47.964;7.982;2023-03-01T01:58:18;97026.06;;;14.02;56.44
48386;BME280;34644;47.964;7.982;2023-03-01T02:12:38;97001.16;;;14.03;56.53
48386;BME280;34644;47.964;7.982;2023-03-01T02:20:00;97001.72;;;14.05;56.68
48386;BME280;34644;47.964;7.982;2023-03-01T02:27:03;96993.78;;;14.05;56.77
48386;BME280;34644;47.964;7.982;2023-03-01T02:34:04;96999.31;;;14.04;56.87
48386;BME280;34644;47.964;7.982;2023-03-01T02:41:05;96990.03;;;14.01;56.78
48386;BME280;34644;47.964;7.982;2023-03-01T02:48:07;96985.75;;;14.00;57.01
48386;BME280;34644;47.964;7.982;2023-03-01T02:55:08;96977.25;;;13.98;56.81
48386;BME280;34644;47.964;7.982;2023-03-01T03:02:23;96973.78;;;13.98;56.90
48386;BME280;34644;47.964;7.982;2023-03-01T03:09:47;96974.63;;;13.98;56.72
48386;BME280;34644;47.964;7.982;2023-03-01T03:16:49;96966.66;;;13.98;56.74
48386;BME280;34644;47.964;7.982;2023-03-01T03:23:49;96961.13;;;14.00;56.51
48386;BME280;34644;47.964;7.982;2023-03-01T03:30:49;96953.72;;;14.02;56.70
48386;BME280;34644;47.964;7.982;2023-03-01T03:37:50;96941.28;;;13.41;46.25
48386;BME280;34644;47.964;7.982;2023-03-01T03:45:03;96941.34;;;13.12;45.47
48386;BME280;34644;47.964;7.982;2023-03-01T03:52:03;96941.81;;;13.60;48.88
48386;BME280;34644;47.964;7.982;2023-03-01T03:59:03;96945.91;;;13.90;50.81
48386;BME280;34644;47.964;7.982;2023-03-01T04:06:05;96938.78;;;14.18;51.29
48386;BME280;34644;47.964;7.982;2023-03-01T04:13:07;96922.94;;;14.23;51.30
48386;BME280;34644;47.964;7.982;2023-03-01T04:20:11;96930.88;;;14.23;51.57
48386;BME280;34644;47.964;7.982;2023-03-01T04:27:12;96923.19;;;14.21;51.95
48386;BME280;34644;47.964;7.982;2023-03-01T04:34:12;96903.59;;;14.22;52.23
48386;BME280;34644;47.964;7.982;2023-03-01T04:41:14;96904.13;;;14.24;52.28
48386;BME280;34644;47.964;7.982;2023-03-01T04:48:15;96918.25;;;14.30;52.17
48386;BME280;34644;47.964;7.982;2023-03-01T04:55:16;96914.16;;;14.72;51.76
48386;BME280;34644;47.964;7.982;2023-03-01T05:02:16;96909.25;;;15.23;50.93
48386;BME280;34644;47.964;7.982;2023-03-01T05:09:16;96894.75;;;15.41;50.83
48386;BME280;34644;47.964;7.982;2023-03-01T05:16:17;96886.75;;;15.36;51.03
48386;BME280;34644;47.964;7.982;2023-03-01T05:23:18;96884.06;;;15.31;51.20
48386;BME280;34644;47.964;7.982;2023-03-01T05:30:18;96882.66;;;15.18;51.47
48386;BME280;34644;47.964;7.982;2023-03-01T05:37:19;96865.63;;;15.09;52.08
48386;BME280;34644;47.964;7.982;2023-03-01T05:44:19;96873.19;;;14.90;52.13
48386;BME280;34644;47.964;7.982;2023-03-01T05:51:20;96874.63;;;14.70;52.12
48386;BME280;34644;47.964;7.982;2023-03-01T05:58:22;96871.94;;;14.65;52.61
48386;BME280;34644;47.964;7.982;2023-03-01T06:05:22;96872.69;;;14.60;52.83
48386;BME280;34644;47.964;7.982;2023-03-01T06:12:23;96871.28;;;14.58;53.00
48386;BME280;34644;47.964;7.982;2023-03-01T06:19:23;96871.53;;;14.56;53.09
48386;BME280;34644;47.964;7.982;2023-03-01T06:26:23;96880.03;;;14.53;53.18
48386;BME280;34644;47.964;7.982;2023-03-01T06:33:24;96878.41;;;14.52;53.35
48386;BME280;34644;47.964;7.982;2023-03-01T06:40:24;96888.75;;;14.48;53.67
48386;BME280;34644;47.964;7.982;2023-03-01T06:47:25;96869.84;;;14.45;53.63
48386;BME280;34644;47.964;7.982;2023-03-01T06:54:26;96879.69;;;14.44;53.59
48386;BME280;34644;47.964;7.982;2023-03-01T07:01:26;96875.91;;;14.40;53.81
48386;BME280;34644;47.964;7.982;2023-03-01T07:08:26;96882.28;;;14.39;53.84
48386;BME280;34644;47.964;7.982;2023-03-01T07:15:27;96878.88;;;14.44;53.63
48386;BME280;34644;47.964;7.982;2023-03-01T07:22:27;96873.22;;;14.62;52.94
48386;BME280;34644;47.964;7.982;2023-03-01T07:29:28;96872.47;;;14.99;52.21
48386;BME280;34644;47.964;7.982;2023-03-01T07:36:28;96863.13;;;14.97;52.29
48386;BME280;34644;47.964;7.982;2023-03-01T07:43:29;96861.50;;;14.91;52.49
48386;BME280;34644;47.964;7.982;2023-03-01T07:50:30;96859.28;;;14.77;52.47
48386;BME280;34644;47.964;7.982;2023-03-01T07:57:30;96844.38;;;14.71;52.79
48386;BME280;34644;47.964;7.982;2023-03-01T08:04:31;96852.31;;;14.66;52.82
48386;BME280;34644;47.964;7.982;2023-03-01T08:11:33;96849.59;;;14.61;53.09
48386;BME280;34644;47.964;7.982;2023-03-01T08:18:33;96853.31;;;14.60;53.05
48386;BME280;34644;47.964;7.982;2023-03-01T08:25:34;96850.06;;;14.58;53.04
48386;BME280;34644;47.964;7.982;2023-03-01T08:32:35;96850.31;;;14.56;53.28
48386;BME280;34644;47.964;7.982;2023-03-01T08:39:35;96842.63;;;14.55;53.25
48386;BME280;34644;47.964;7.982;2023-03-01T08:46:37;96848.75;;;14.55;53.35
48386;BME280;34644;47.964;7.982;2023-03-01T08:53:37;96846.34;;;14.54;53.46
48386;BME280;34644;47.964;7.982;2023-03-01T09:00:38;96843.94;;;14.52;53.39
48386;BME280;34644;47.964;7.982;2023-03-01T09:07:38;96836.25;;;14.51;53.52
48386;BME280;34644;47.964;7.982;2023-03-01T09:14:38;96823.75;;;14.46;53.68
48386;BME280;34644;47.964;7.982;2023-03-01T09:21:41;96807.03;;;14.45;53.53
48386;BME280;34644;47.964;7.982;2023-03-01T09:28:41;96797.72;;;14.43;53.70
48386;BME280;34644;47.964;7.982;2023-03-01T09:35:41;96813.88;;;14.41;53.67
48386;BME280;34644;47.964;7.982;2023-03-01T09:42:53;96822.09;;;14.40;53.85
48386;BME280;34644;47.964;7.982;2023-03-01T09:50:06;96820.72;;;14.37;53.82
48386;BME280;34644;47.964;7.982;2023-03-01T09:57:20;96829.19;;;14.34;54.02
48386;BME280;34644;47.964;7.982;2023-03-01T10:04:36;96826.00;;;14.32;54.13
48386;BME280;34644;47.964;7.982;2023-03-01T10:11:47;96820.94;;;14.30;54.09
48386;BME280;34644;47.964;7.982;2023-03-01T10:18:51;96810.59;;;14.29;53.96
48386;BME280;34644;47.964;7.982;2023-03-01T10:26:01;96801.06;;;14.28;53.87
48386;BME280;34644;47.964;7.982;2023-03-01T10:33:14;96799.69;;;14.25;54.09
48386;BME280;34644;47.964;7.982;2023-03-01T10:40:17;96800.75;;;14.24;54.00
48386;BME280;34644;47.964;7.982;2023-03-01T10:47:20;96798.34;;;14.23;54.22
48386;BME280;34644;47.964;7.982;2023-03-01T10:54:21;96785.91;;;14.23;54.05
48386;BME280;34644;47.964;7.982;2023-03-01T11:08:56;96760.69;;;14.21;54.30
48386;BME280;34644;47.964;7.982;2023-03-01T11:15:59;96761.72;;;14.20;54.09
48386;BME280;34644;47.964;7.982;2023-03-01T11:23:10;96751.97;;;14.25;53.92
48386;BME280;34644;47.964;7.982;2023-03-01T11:30:27;96742.81;;;14.76;52.68
48386;BME280;34644;47.964;7.982;2023-03-01T11:37:37;96733.34;;;14.95;51.80
48386;BME280;34644;47.964;7.982;2023-03-01T11:44:40;96730.72;;;15.00;51.41
48386;BME280;34644;47.964;7.982;2023-03-01T11:51:52;96724.09;;;15.03;50.83
48386;BME280;34644;47.964;7.982;2023-03-01T12:06:26;96717.00;;;15.24;50.27
48386;BME280;34644;47.964;7.982;2023-03-01T12:20:38;96697.38;;;15.30;49.85
48386;BME280;34644;47.964;7.982;2023-03-01T12:27:50;96699.50;;;15.28;50.26
48386;BME280;34644;47.964;7.982;2023-03-01T12:49:15;96672.13;;;15.17;50.80
48386;BME280;34644;47.964;7.982;2023-03-01T12:56:27;96670.81;;;15.15;51.26
48386;BME280;34644;47.964;7.982;2023-03-01T13:10:48;96643.44;;;15.19;51.21
48386;BME280;34644;47.964;7.982;2023-03-01T13:17:49;96648.50;;;15.21;51.06
48386;BME280;34644;47.964;7.982;2023-03-01T13:24:54;96643.19;;;15.16;51.39
48386;BME280;34644;47.964;7.982;2023-03-01T13:32:00;96647.66;;;15.05;51.69
48386;BME280;34644;47.964;7.982;2023-03-01T13:39:02;96646.03;;;14.99;51.64
48386;BME280;34644;47.964;7.982;2023-03-01T13:46:10;96644.22;;;14.99;51.84
48386;BME280;34644;47.964;7.982;2023-03-01T13:53:14;96629.59;;;14.92;52.10
48386;BME280;34644;47.964;7.982;2023-03-01T14:00:36;96638.59;;;14.96;51.95
48386;BME280;34644;47.964;7.982;2023-03-01T14:07:36;96634.91;;;14.97;51.66
48386;BME280;34644;47.964;7.982;2023-03-01T14:21:41;96610.53;;;15.10;51.15
48386;BME280;34644;47.964;7.982;2023-03-01T14:28:42;96613.97;;;15.06;51.15
48386;BME280;34644;47.964;7.982;2023-03-01T14:35:42;96608.16;;;15.14;51.16
48386;BME280;34644;47.964;7.982;2023-03-01T14:42:42;96608.41;;;15.17;50.68
48386;BME280;34644;47.964;7.982;2023-03-01T14:49:43;96598.31;;;15.19;50.92
48386;BME280;34644;47.964;7.982;2023-03-01T14:56:44;96600.97;;;15.19;51.06
48386;BME280;34644;47.964;7.982;2023-03-01T15:03:46;96593.00;;;15.19;50.91
48386;BME280;34644;47.964;7.982;2023-03-01T15:10:59;96590.34;;;15.19;51.03
48386;BME280;34644;47.964;7.982;2023-03-01T15:18:00;96596.47;;;15.20;50.95
48386;BME280;34644;47.964;7.982;2023-03-01T15:25:02;96588.78;;;15.18;50.92
48386;BME280;34644;47.964;7.982;2023-03-01T15:32:04;96577.91;;;15.20;51.36
48386;BME280;34644;47.964;7.982;2023-03-01T15:39:05;96573.91;;;15.17;51.61
48386;BME280;34644;47.964;7.982;2023-03-01T15:46:12;96582.38;;;15.14;51.64
48386;BME280;34644;47.964;7.982;2023-03-01T15:53:15;96580.81;;;15.13;51.89
48386;BME280;34644;47.964;7.982;2023-03-01T16:00:16;96585.03;;;15.09;51.91
48386;BME280;34644;47.964;7.982;2023-03-01T16:07:17;96585.56;;;15.06;51.86
48386;BME280;34644;47.964;7.982;2023-03-01T16:14:17;96588.75;;;14.98;52.15
48386;BME280;34644;47.964;7.982;2023-03-01T16:21:22;96584.47;;;14.92;52.14
48386;BME280;34644;47.964;7.982;2023-03-01T16:28:23;96600.91;;;14.89;52.19
48386;BME280;34644;47.964;7.982;2023-03-01T16:35:23;96600.41;;;14.92;52.02
48386;BME280;34644;47.964;7.982;2023-03-01T16:42:24;96598.31;;;15.14;51.22
48386;BME280;34644;47.964;7.982;2023-03-01T16:49:24;96612.94;;;15.27;50.78
48386;BME280;34644;47.964;7.982;2023-03-01T16:56:24;96614.03;;;15.42;50.49
48386;BME280;34644;47.964;7.982;2023-03-01T17:03:25;96615.09;;;15.41;50.31
48386;BME280;34644;47.964;7.982;2023-03-01T17:10:26;96617.50;;;15.37;50.34
48386;BME280;34644;47.964;7.982;2023-03-01T17:17:26;96620.94;;;15.32;50.46
48386;BME280;34644;47.964;7.982;2023-03-01T17:24:27;96628.59;;;15.24;50.56
48386;BME280;34644;47.964;7.982;2023-03-01T17:31:29;96621.69;;;15.23;50.83
48386;BME280;34644;47.964;7.982;2023-03-01T17:38:29;96631.53;;;15.22;50.86
48386;BME280;34644;47.964;7.982;2023-03-01T17:45:29;96637.59;;;15.12;51.19
48386;BME280;34644;47.964;7.982;2023-03-01T17:52:30;96652.75;;;15.12;51.05
48386;BME280;34644;47.964;7.982;2023-03-01T17:59:30;96657.50;;;15.05;51.49
48386;BME280;34644;47.964;7.982;2023-03-01T18:06:32;96657.22;;;15.01;51.55
48386;BME280;34644;47.964;7.982;2023-03-01T18:13:33;96660.41;;;14.98;51.82
48386;BME280;34644;47.964;7.982;2023-03-01T18:20:33;96657.84;;;14.60;48.60
48386;BME280;34644;47.964;7.982;2023-03-01T18:27:33;96655.84;;;14.40;47.11
48386;BME280;34644;47.964;7.982;2023-03-01T18:34:35;96651.53;;;14.29;46.10
48386;BME280;34644;47.964;7.982;2023-03-01T18:41:36;96656.56;;;14.25;45.73
48386;BME280;34644;47.964;7.982;2023-03-01T18:48:36;96656.19;;;14.11;45.16
48386;BME280;34644;47.964;7.982;2023-03-01T18:55:37;96658.19;;;14.32;46.72
48386;BME280;34644;47.964;7.982;2023-03-01T19:02:38;96655.84;;;14.40;48.18
48386;BME280;34644;47.964;7.982;2023-03-01T19:09:38;96661.44;;;14.44;48.71
48386;BME280;34644;47.964;7.982;2023-03-01T19:16:39;96651.63;;;14.44;49.22
48386;BME280;34644;47.964;7.982;2023-03-01T19:23:39;96642.63;;;14.45;49.73
48386;BME280;34644;47.964;7.982;2023-03-01T19:30:39;96645.28;;;14.45;49.84
48386;BME280;34644;47.964;7.982;2023-03-01T19:37:40;96628.56;;;14.45;50.20
48386;BME280;34644;47.964;7.982;2023-03-01T19:44:40;96635.19;;;14.42;50.30
48386;BME280;34644;47.964;7.982;2023-03-01T19:51:41;96629.06;;;14.42;50.50
48386;BME280;34644;47.964;7.982;2023-03-01T19:58:41;96622.97;;;14.41;50.62
48386;BME280;34644;47.964;7.982;2023-03-01T20:05:43;96618.72;;;14.40;50.77
48386;BME280;34644;47.964;7.982;2023-03-01T20:12:44;96614.47;;;14.39;50.63
48386;BME280;34644;47.964;7.982;2023-03-01T20:19:44;96615.53;;;14.38;50.88
48386;BME280;34644;47.964;7.982;2023-03-01T20:26:44;96616.56;;;14.37;50.91
48386;BME280;34644;47.964;7.982;2023-03-01T20:33:45;96612.34;;;14.36;50.93
48386;BME280;34644;47.964;7.982;2023-03-01T20:40:45;96605.19;;;14.37;51.19
48386;BME280;34644;47.964;7.982;2023-03-01T20:47:46;96605.44;;;14.35;51.23
48386;BME280;34644;47.964;7.982;2023-03-01T20:54:46;96596.69;;;14.35;51.23
48386;BME280;34644;47.964;7.982;2023-03-01T21:01:46;96585.84;;;14.36;51.27
48386;BME280;34644;47.964;7.982;2023-03-01T21:08:46;96575.75;;;14.38;51.49
48386;BME280;34644;47.964;7.982;2023-03-01T21:15:53;96571.25;;;14.39;51.99
48386;BME280;34644;47.964;7.982;2023-03-01T21:22:54;96559.84;;;14.38;52.43
48386;BME280;34644;47.964;7.982;2023-03-01T21:29:54;96566.19;;;14.37;52.40
48386;BME280;34644;47.964;7.982;2023-03-01T21:36:54;96559.06;;;14.38;52.23
48386;BME280;34644;47.964;7.982;2023-03-01T21:43:55;96557.19;;;14.38;52.72
48386;BME280;34644;47.964;7.982;2023-03-01T21:50:56;96538.63;;;14.38;52.76
48386;BME280;34644;47.964;7.982;2023-03-01T21:57:57;96541.28;;;14.38;52.89
48386;BME280;34644;47.964;7.982;2023-03-01T22:04:57;96537.03;;;14.37;52.95
48386;BME280;34644;47.964;7.982;2023-03-01T22:11:57;96533.34;;;14.38;52.85
48386;BME280;34644;47.964;7.982;2023-03-01T22:19:01;96529.09;;;14.37;52.94
48386;BME280;34644;47.964;7.982;2023-03-01T22:26:02;96523.78;;;14.37;53.63
48386;BME280;34644;47.964;7.982;2023-03-01T22:33:02;96510.53;;;14.37;53.30
48386;BME280;34644;47.964;7.982;2023-03-01T22:40:03;96498.88;;;14.38;53.25
48386;BME280;34644;47.964;7.982;2023-03-01T22:47:04;96506.81;;;14.38;53.43
48386;BME280;34644;47.964;7.982;2023-03-01T22:54:04;96493.81;;;14.37;53.34
48386;BME280;34644;47.964;7.982;2023-03-01T23:01:11;96497.25;;;14.37;53.44
48386;BME280;34644;47.964;7.982;2023-03-01T23:08:14;96505.22;;;14.37;53.52
48386;BME280;34644;47.964;7.982;2023-03-01T23:15:14;96489.56;;;14.36;53.61
48386;BME280;34644;47.964;7.982;2023-03-01T23:22:15;96472.34;;;14.33;53.60
48386;BME280;34644;47.964;7.982;2023-03-01T23:29:15;96477.41;;;14.35;53.55
48386;BME280;34644;47.964;7.982;2023-03-01T23:36:20;96460.66;;;14.34;53.81
48386;BME280;34644;47.964;7.982;2023-03-01T23:43:21;96458.84;;;14.35;53.90
48386;BME280;34644;47.964;7.982;2023-03-01T23:50:21;96451.16;;;14.33;53.87
48386;BME280;34644;47.964;7.982;2023-03-01T23:57:21;96446.63;;;14.34;54.01
